Cundiff, Kentucky
Current Conditions -  °F | °C
As of 2:56 AM on Sunday 23 Nov 2014 (Local Time) from KEKQ Reporting Station
Few Clouds Few Clouds  
Wind Chill: 53°   Ceiling: Unl
Heat Index: 53°   Visibility: 10mi
Dew Point: 38°   Wind: 3mph
Humidity: 57%   Direction: NA
Pressure: 30.08"   Gusts: NA
Location:  37.112°N, 85.2724°W
Report Text: KEKQ 230856Z AUTO VRB03KT 10SM FEW049 12/03 A3008 RMK AO2 56016 T01160033 SLP184
Loading
Personal Weather Stations






























Interactive Weather Map New forecast layout! Learn more

10-Day Weather Forecast

Advertisements
Track Severe Weather on mobile